Escribe el Código OACI del Aeropuerto

Buscar por Aeropuerto o Ciudad

Información Meteorológica Actual

SARI | Cataratas del Iguazú International Airport

Puerto Iguazú, Misiones, Argentina

Última Actualización Hace 29 Minutos

Cielo Despejado

28 ºC de Temperatura

Vientos Leves a Moderados del Este

Temperatura

28 ºC

Temperatura del Punto de Rocío

15 ºC

Humedad Relativa

45.32 %

Dirección del Viento

Este (070º, Sin Variaciones de Consideración)

Velocidad del Viento

17 km/h (09 kt)

Ráfagas

No Hay

Visibilidad

Sin Reducciones de Consideración

Presión Reducida a Nivel del Mar

1015 hPa (Hectopascales)

Capas de Nubes

No Hay

METAR SARI 071400Z 07009KT CAVOK 28/15 Q1015

Pronóstico Meteorológico

SARI | Cataratas del Iguazú International Airport

Puerto Iguazú, Misiones, Argentina

Pronóstico válido para las próximas 22 Horas

A partir de este momento se espera:

Cielo Despejado

Vientos Moderados del Este

En 1 a 2 horas se espera el comienzo de:

Cielo Parcialmente Nublado

En 7 a 8 horas se espera el comienzo de:

Cielo Despejado

Temperatura Máxima

33 ºC en 5 Horas

Temperatura Mínima

20 ºC en 20 Horas

TAF SARI 071100Z 0712/0812 09010KT CAVOK TX33/0719Z TN20/0810Z BECMG 0715/0716 SCT035 BECMG 0721/0722 CAVOK